sensor_id;sensor_type;location;lat;lon;timestamp;pressure;altitude;pressure_sealevel;temperature;humidity
26487;BME280;14425;56.136;40.360;2022-09-03T00:05:03;99838.66;;;10.51;83.40
26487;BME280;14425;56.136;40.360;2022-09-03T00:13:09;99848.59;;;10.42;83.14
26487;BME280;14425;56.136;40.360;2022-09-03T00:15:38;99858.63;;;10.34;83.97
26487;BME280;14425;56.136;40.360;2022-09-03T00:18:09;99864.50;;;10.11;84.60
26487;BME280;14425;56.136;40.360;2022-09-03T00:20:40;99867.94;;;9.69;88.96
26487;BME280;14425;56.136;40.360;2022-09-03T00:23:06;99867.16;;;10.33;85.95
26487;BME280;14425;56.136;40.360;2022-09-03T00:25:38;99870.53;;;9.90;87.83
26487;BME280;14425;56.136;40.360;2022-09-03T00:28:27;99867.63;;;9.61;89.40
26487;BME280;14425;56.136;40.360;2022-09-03T00:31:02;99884.06;;;10.06;87.94
26487;BME280;14425;56.136;40.360;2022-09-03T00:33:31;99880.22;;;9.75;89.50
26487;BME280;14425;56.136;40.360;2022-09-03T00:38:30;99884.19;;;10.30;83.79
26487;BME280;14425;56.136;40.360;2022-09-03T00:48:33;99893.16;;;9.97;85.24
26487;BME280;14425;56.136;40.360;2022-09-03T01:00:58;99901.16;;;10.46;81.99
26487;BME280;14425;56.136;40.360;2022-09-03T01:08:48;99900.59;;;10.53;80.26
26487;BME280;14425;56.136;40.360;2022-09-03T01:17:02;99902.16;;;10.28;81.97
26487;BME280;14425;56.136;40.360;2022-09-03T01:29:46;99911.13;;;10.80;78.43
26487;BME280;14425;56.136;40.360;2022-09-03T01:32:21;99906.34;;;10.68;78.96
26487;BME280;14425;56.136;40.360;2022-09-03T01:37:21;99916.44;;;10.62;79.35
26487;BME280;14425;56.136;40.360;2022-09-03T01:50:22;99922.78;;;10.28;81.87
26487;BME280;14425;56.136;40.360;2022-09-03T01:53:04;99928.81;;;10.08;82.80
26487;BME280;14425;56.136;40.360;2022-09-03T01:55:32;99931.94;;;9.79;86.48
26487;BME280;14425;56.136;40.360;2022-09-03T01:58:17;99930.75;;;10.33;82.54
26487;BME280;14425;56.136;40.360;2022-09-03T02:00:48;99936.38;;;10.45;81.08
26487;BME280;14425;56.136;40.360;2022-09-03T02:03:15;99932.00;;;10.43;80.75
26487;BME280;14425;56.136;40.360;2022-09-03T02:05:41;99935.13;;;10.14;81.77
26487;BME280;14425;56.136;40.360;2022-09-03T02:08:08;99933.75;;;10.23;82.07
26487;BME280;14425;56.136;40.360;2022-09-03T02:10:45;99934.53;;;10.41;80.39
26487;BME280;14425;56.136;40.360;2022-09-03T02:13:31;99939.81;;;10.44;80.64
26487;BME280;14425;56.136;40.360;2022-09-03T02:15:59;99942.34;;;10.23;81.08
26487;BME280;14425;56.136;40.360;2022-09-03T02:18:29;99942.78;;;10.13;83.20
26487;BME280;14425;56.136;40.360;2022-09-03T02:20:57;99949.06;;;10.20;82.27
26487;BME280;14425;56.136;40.360;2022-09-03T02:23:23;99937.19;;;10.23;82.19
26487;BME280;14425;56.136;40.360;2022-09-03T02:25:51;99944.16;;;10.26;82.14
26487;BME280;14425;56.136;40.360;2022-09-03T02:28:19;99942.53;;;10.49;80.13
26487;BME280;14425;56.136;40.360;2022-09-03T02:30:45;99955.13;;;10.01;83.21
26487;BME280;14425;56.136;40.360;2022-09-03T02:33:12;99961.44;;;10.48;80.18
26487;BME280;14425;56.136;40.360;2022-09-03T02:35:38;99961.50;;;10.09;82.51
26487;BME280;14425;56.136;40.360;2022-09-03T02:38:08;99960.84;;;10.55;79.42
26487;BME280;14425;56.136;40.360;2022-09-03T02:40:34;99965.94;;;10.53;79.30
26487;BME280;14425;56.136;40.360;2022-09-03T02:43:00;99964.88;;;10.69;78.35
26487;BME280;14425;56.136;40.360;2022-09-03T02:45:27;99972.63;;;10.69;78.15
26487;BME280;14425;56.136;40.360;2022-09-03T02:47:58;99970.38;;;10.79;77.30
26487;BME280;14425;56.136;40.360;2022-09-03T02:50:24;99971.16;;;10.55;78.53
26487;BME280;14425;56.136;40.360;2022-09-03T02:52:50;99979.94;;;10.38;80.46
26487;BME280;14425;56.136;40.360;2022-09-03T02:55:16;99982.81;;;10.05;81.82
26487;BME280;14425;56.136;40.360;2022-09-03T02:57:42;99986.75;;;10.17;82.83
26487;BME280;14425;56.136;40.360;2022-09-03T03:00:08;99987.09;;;10.45;80.76
26487;BME280;14425;56.136;40.360;2022-09-03T03:02:33;100006.00;;;9.85;82.91
26487;BME280;14425;56.136;40.360;2022-09-03T03:04:59;99996.00;;;10.12;83.35
26487;BME280;14425;56.136;40.360;2022-09-03T03:07:26;99993.75;;;10.40;81.20
26487;BME280;14425;56.136;40.360;2022-09-03T03:09:52;99999.50;;;9.93;83.95
26487;BME280;14425;56.136;40.360;2022-09-03T03:12:18;100006.81;;;10.04;83.12
26487;BME280;14425;56.136;40.360;2022-09-03T03:14:44;100011.00;;;10.02;83.97
26487;BME280;14425;56.136;40.360;2022-09-03T03:17:10;100017.66;;;9.77;84.48
26487;BME280;14425;56.136;40.360;2022-09-03T03:19:36;100025.91;;;9.50;87.35
26487;BME280;14425;56.136;40.360;2022-09-03T03:22:01;100024.97;;;9.68;87.55
26487;BME280;14425;56.136;40.360;2022-09-03T03:24:27;100021.69;;;10.11;83.50
26487;BME280;14425;56.136;40.360;2022-09-03T03:26:56;100022.59;;;10.11;82.45
26487;BME280;14425;56.136;40.360;2022-09-03T03:29:41;100030.22;;;10.49;79.90
26487;BME280;14425;56.136;40.360;2022-09-03T03:32:07;100029.38;;;9.70;84.66
26487;BME280;14425;56.136;40.360;2022-09-03T03:34:32;100036.06;;;10.25;81.86
26487;BME280;14425;56.136;40.360;2022-09-03T03:36:58;100045.72;;;10.10;82.74
26487;BME280;14425;56.136;40.360;2022-09-03T03:39:24;100053.56;;;9.74;85.64
26487;BME280;14425;56.136;40.360;2022-09-03T03:41:49;100042.06;;;10.05;84.02
26487;BME280;14425;56.136;40.360;2022-09-03T03:44:16;100044.91;;;10.11;82.57
26487;BME280;14425;56.136;40.360;2022-09-03T03:46:44;100045.94;;;10.14;83.50
26487;BME280;14425;56.136;40.360;2022-09-03T03:49:10;100047.63;;;10.33;80.41
26487;BME280;14425;56.136;40.360;2022-09-03T03:51:36;100057.97;;;10.76;78.50
26487;BME280;14425;56.136;40.360;2022-09-03T03:54:02;100058.53;;;10.08;82.83
26487;BME280;14425;56.136;40.360;2022-09-03T03:56:28;100062.47;;;10.20;82.37
26487;BME280;14425;56.136;40.360;2022-09-03T03:58:54;100072.19;;;9.49;87.05
26487;BME280;14425;56.136;40.360;2022-09-03T04:01:24;100084.59;;;9.57;88.46
26487;BME280;14425;56.136;40.360;2022-09-03T04:03:50;100082.69;;;10.10;85.32
26487;BME280;14425;56.136;40.360;2022-09-03T04:06:17;100079.75;;;9.83;86.98
26487;BME280;14425;56.136;40.360;2022-09-03T04:08:44;100091.75;;;9.45;91.12
26487;BME280;14425;56.136;40.360;2022-09-03T04:11:10;100077.69;;;10.33;84.90
26487;BME280;14425;56.136;40.360;2022-09-03T04:13:37;100081.31;;;10.58;81.29
26487;BME280;14425;56.136;40.360;2022-09-03T04:16:03;100092.06;;;10.68;80.14
26487;BME280;14425;56.136;40.360;2022-09-03T04:18:30;100096.75;;;10.37;81.29
26487;BME280;14425;56.136;40.360;2022-09-03T04:21:03;100106.16;;;10.16;81.85
26487;BME280;14425;56.136;40.360;2022-09-03T04:23:33;100096.56;;;10.72;79.67
26487;BME280;14425;56.136;40.360;2022-09-03T04:25:59;100087.84;;;10.49;79.87
26487;BME280;14425;56.136;40.360;2022-09-03T04:28:24;100087.69;;;10.66;79.67
26487;BME280;14425;56.136;40.360;2022-09-03T04:30:50;100100.00;;;10.13;81.60
26487;BME280;14425;56.136;40.360;2022-09-03T04:33:16;100094.28;;;10.20;83.40
26487;BME280;14425;56.136;40.360;2022-09-03T04:35:41;100086.94;;;10.49;81.32
26487;BME280;14425;56.136;40.360;2022-09-03T04:38:07;100099.94;;;10.71;79.97
26487;BME280;14425;56.136;40.360;2022-09-03T04:40:33;100100.28;;;10.79;78.29
26487;BME280;14425;56.136;40.360;2022-09-03T04:42:58;100097.19;;;10.88;77.76
26487;BME280;14425;56.136;40.360;2022-09-03T04:45:25;100103.22;;;10.28;80.94
26487;BME280;14425;56.136;40.360;2022-09-03T04:47:57;100114.88;;;10.38;80.47
26487;BME280;14425;56.136;40.360;2022-09-03T04:50:23;100113.28;;;10.61;78.37
26487;BME280;14425;56.136;40.360;2022-09-03T04:52:49;100103.22;;;10.88;77.81
26487;BME280;14425;56.136;40.360;2022-09-03T04:55:14;100110.34;;;10.94;74.41
26487;BME280;14425;56.136;40.360;2022-09-03T04:57:41;100106.97;;;10.76;75.63
26487;BME280;14425;56.136;40.360;2022-09-03T05:00:07;100126.06;;;11.00;72.99
26487;BME280;14425;56.136;40.360;2022-09-03T05:02:35;100130.66;;;10.86;73.64
26487;BME280;14425;56.136;40.360;2022-09-03T05:05:01;100118.44;;;10.82;74.01
26487;BME280;14425;56.136;40.360;2022-09-03T05:07:26;100127.25;;;10.66;73.94
26487;BME280;14425;56.136;40.360;2022-09-03T05:09:53;100130.63;;;10.44;75.94
26487;BME280;14425;56.136;40.360;2022-09-03T05:12:18;100124.47;;;11.02;73.89
26487;BME280;14425;56.136;40.360;2022-09-03T05:14:44;100122.91;;;10.65;73.23
26487;BME280;14425;56.136;40.360;2022-09-03T05:17:10;100120.03;;;11.00;71.89
26487;BME280;14425;56.136;40.360;2022-09-03T05:19:36;100134.06;;;11.06;71.14
26487;BME280;14425;56.136;40.360;2022-09-03T05:22:02;100123.34;;;11.39;70.75
26487;BME280;14425;56.136;40.360;2022-09-03T05:24:27;100125.94;;;11.18;71.17
26487;BME280;14425;56.136;40.360;2022-09-03T05:26:53;100130.78;;;11.10;71.12
26487;BME280;14425;56.136;40.360;2022-09-03T05:29:19;100135.59;;;11.22;71.07
26487;BME280;14425;56.136;40.360;2022-09-03T05:31:46;100127.84;;;11.66;69.15
26487;BME280;14425;56.136;40.360;2022-09-03T05:34:11;100135.56;;;10.59;73.08
26487;BME280;14425;56.136;40.360;2022-09-03T05:36:37;100133.06;;;11.24;71.09
26487;BME280;14425;56.136;40.360;2022-09-03T05:39:03;100130.72;;;11.96;66.32
26487;BME280;14425;56.136;40.360;2022-09-03T05:41:29;100124.34;;;11.88;65.33
26487;BME280;14425;56.136;40.360;2022-09-03T05:43:57;100132.88;;;11.63;68.34
26487;BME280;14425;56.136;40.360;2022-09-03T05:46:26;100135.28;;;11.58;67.93
26487;BME280;14425;56.136;40.360;2022-09-03T05:48:58;100129.13;;;12.00;65.72
26487;BME280;14425;56.136;40.360;2022-09-03T05:51:24;100130.16;;;12.52;63.26
26487;BME280;14425;56.136;40.360;2022-09-03T05:53:50;100130.25;;;12.07;65.33
26487;BME280;14425;56.136;40.360;2022-09-03T05:56:22;100142.78;;;11.96;64.42
26487;BME280;14425;56.136;40.360;2022-09-03T05:58:49;100134.47;;;12.77;62.25
26487;BME280;14425;56.136;40.360;2022-09-03T06:03:41;100144.59;;;12.95;61.29
26487;BME280;14425;56.136;40.360;2022-09-03T06:06:07;100155.25;;;12.54;61.85
26487;BME280;14425;56.136;40.360;2022-09-03T06:08:33;100142.97;;;12.25;62.34
26487;BME280;14425;56.136;40.360;2022-09-03T06:11:00;100145.56;;;12.49;61.45
26487;BME280;14425;56.136;40.360;2022-09-03T06:13:26;100146.44;;;13.25;58.99
26487;BME280;14425;56.136;40.360;2022-09-03T06:16:09;100151.50;;;13.22;58.98
26487;BME280;14425;56.136;40.360;2022-09-03T06:18:35;100161.41;;;12.82;60.34
26487;BME280;14425;56.136;40.360;2022-09-03T06:21:03;100161.50;;;12.85;59.87
26487;BME280;14425;56.136;40.360;2022-09-03T06:23:29;100155.53;;;12.88;60.22
26487;BME280;14425;56.136;40.360;2022-09-03T06:28:30;100157.25;;;13.95;57.80
26487;BME280;14425;56.136;40.360;2022-09-03T06:30:58;100151.22;;;12.63;60.81
26487;BME280;14425;56.136;40.360;2022-09-03T06:33:24;100154.44;;;12.55;65.36
26487;BME280;14425;56.136;40.360;2022-09-03T06:35:53;100167.97;;;12.98;60.97
26487;BME280;14425;56.136;40.360;2022-09-03T06:38:22;100165.34;;;12.97;57.25
26487;BME280;14425;56.136;40.360;2022-09-03T06:40:51;100186.56;;;13.38;56.84
26487;BME280;14425;56.136;40.360;2022-09-03T06:43:17;100184.97;;;13.41;56.99
26487;BME280;14425;56.136;40.360;2022-09-03T06:45:43;100165.16;;;13.99;55.67
26487;BME280;14425;56.136;40.360;2022-09-03T06:48:17;100170.31;;;12.90;58.33
26487;BME280;14425;56.136;40.360;2022-09-03T06:50:43;100177.94;;;12.37;61.73
26487;BME280;14425;56.136;40.360;2022-09-03T06:53:09;100174.44;;;12.85;58.94
26487;BME280;14425;56.136;40.360;2022-09-03T06:55:35;100173.28;;;13.54;57.98
26487;BME280;14425;56.136;40.360;2022-09-03T06:58:04;100178.44;;;11.83;60.63
26487;BME280;14425;56.136;40.360;2022-09-03T07:00:29;100177.25;;;12.43;61.06
26487;BME280;14425;56.136;40.360;2022-09-03T07:02:55;100177.06;;;12.37;62.29
26487;BME280;14425;56.136;40.360;2022-09-03T07:05:23;100178.31;;;12.72;60.21
26487;BME280;14425;56.136;40.360;2022-09-03T07:07:50;100177.38;;;13.47;56.56
26487;BME280;14425;56.136;40.360;2022-09-03T07:10:16;100176.88;;;14.15;54.42
26487;BME280;14425;56.136;40.360;2022-09-03T07:12:45;100178.41;;;14.09;53.98
26487;BME280;14425;56.136;40.360;2022-09-03T07:15:10;100177.06;;;14.21;53.13
26487;BME280;14425;56.136;40.360;2022-09-03T07:17:36;100176.13;;;14.50;51.57
26487;BME280;14425;56.136;40.360;2022-09-03T07:20:02;100176.56;;;14.97;51.28
26487;BME280;14425;56.136;40.360;2022-09-03T07:22:28;100180.19;;;14.70;51.34
26487;BME280;14425;56.136;40.360;2022-09-03T07:24:54;100182.63;;;14.05;53.99
26487;BME280;14425;56.136;40.360;2022-09-03T07:27:19;100196.50;;;13.51;54.19
26487;BME280;14425;56.136;40.360;2022-09-03T07:29:45;100188.75;;;14.37;52.20
26487;BME280;14425;56.136;40.360;2022-09-03T07:32:11;100194.06;;;14.12;52.14
26487;BME280;14425;56.136;40.360;2022-09-03T07:34:36;100194.25;;;13.89;52.49
26487;BME280;14425;56.136;40.360;2022-09-03T07:37:02;100177.72;;;15.08;50.18
26487;BME280;14425;56.136;40.360;2022-09-03T07:39:29;100176.78;;;15.76;47.51
26487;BME280;14425;56.136;40.360;2022-09-03T07:41:55;100186.59;;;13.94;51.50
26487;BME280;14425;56.136;40.360;2022-09-03T07:44:22;100178.06;;;15.59;49.68
26487;BME280;14425;56.136;40.360;2022-09-03T07:46:48;100187.91;;;14.69;49.52
26487;BME280;14425;56.136;40.360;2022-09-03T07:49:15;100189.47;;;14.62;49.88
26487;BME280;14425;56.136;40.360;2022-09-03T07:51:41;100186.09;;;14.34;49.94
26487;BME280;14425;56.136;40.360;2022-09-03T07:54:07;100186.22;;;15.36;47.84
26487;BME280;14425;56.136;40.360;2022-09-03T07:56:35;100177.88;;;15.49;46.50
26487;BME280;14425;56.136;40.360;2022-09-03T07:59:01;100190.50;;;14.38;48.84
26487;BME280;14425;56.136;40.360;2022-09-03T08:01:27;100189.97;;;15.14;47.89
26487;BME280;14425;56.136;40.360;2022-09-03T08:03:55;100175.16;;;15.45;47.58
26487;BME280;14425;56.136;40.360;2022-09-03T08:06:22;100187.81;;;14.05;49.59
26487;BME280;14425;56.136;40.360;2022-09-03T08:08:48;100185.25;;;15.32;47.21
26487;BME280;14425;56.136;40.360;2022-09-03T08:11:18;100189.47;;;14.62;48.54
26487;BME280;14425;56.136;40.360;2022-09-03T08:14:04;100183.88;;;14.78;48.58
26487;BME280;14425;56.136;40.360;2022-09-03T08:16:35;100175.69;;;16.47;45.74
26487;BME280;14425;56.136;40.360;2022-09-03T08:19:01;100181.00;;;15.73;45.24
26487;BME280;14425;56.136;40.360;2022-09-03T08:21:27;100189.03;;;15.10;46.67
26487;BME280;14425;56.136;40.360;2022-09-03T08:23:53;100192.00;;;14.91;47.37
26487;BME280;14425;56.136;40.360;2022-09-03T08:26:21;100184.34;;;16.05;44.84
26487;BME280;14425;56.136;40.360;2022-09-03T08:28:47;100185.19;;;16.43;42.98
26487;BME280;14425;56.136;40.360;2022-09-03T08:31:18;100178.75;;;15.86;43.81
26487;BME280;14425;56.136;40.360;2022-09-03T08:33:46;100182.22;;;15.15;45.62
26487;BME280;14425;56.136;40.360;2022-09-03T08:38:42;100179.41;;;15.41;45.93
26487;BME280;14425;56.136;40.360;2022-09-03T08:41:17;100187.38;;;16.68;42.62
26487;BME280;14425;56.136;40.360;2022-09-03T08:46:49;100174.03;;;17.47;41.19
26487;BME280;14425;56.136;40.360;2022-09-03T08:49:18;100184.06;;;17.79;40.41
26487;BME280;14425;56.136;40.360;2022-09-03T08:51:46;100156.09;;;17.13;41.83
26487;BME280;14425;56.136;40.360;2022-09-03T08:54:13;100179.44;;;16.61;41.44
26487;BME280;14425;56.136;40.360;2022-09-03T08:56:39;100174.63;;;17.30;41.38
26487;BME280;14425;56.136;40.360;2022-09-03T08:59:06;100152.56;;;18.29;39.35
26487;BME280;14425;56.136;40.360;2022-09-03T09:04:08;100171.56;;;18.17;38.76
26487;BME280;14425;56.136;40.360;2022-09-03T09:06:39;100166.16;;;18.02;39.06
26487;BME280;14425;56.136;40.360;2022-09-03T09:19:55;100167.88;;;18.73;39.44
26487;BME280;14425;56.136;40.360;2022-09-03T09:22:26;100173.22;;;16.99;39.81
26487;BME280;14425;56.136;40.360;2022-09-03T09:24:55;100171.59;;;17.59;39.74
26487;BME280;14425;56.136;40.360;2022-09-03T09:27:23;100155.63;;;18.69;38.12
26487;BME280;14425;56.136;40.360;2022-09-03T09:29:49;100152.56;;;18.29;36.96
26487;BME280;14425;56.136;40.360;2022-09-03T09:32:15;100150.81;;;17.64;38.19
26487;BME280;14425;56.136;40.360;2022-09-03T09:34:42;100160.59;;;18.47;37.17
26487;BME280;14425;56.136;40.360;2022-09-03T09:37:13;100159.91;;;17.90;38.04
26487;BME280;14425;56.136;40.360;2022-09-03T09:39:40;100163.66;;;16.99;39.62
26487;BME280;14425;56.136;40.360;2022-09-03T09:42:07;100158.81;;;17.78;39.97
26487;BME280;14425;56.136;40.360;2022-09-03T09:44:39;100166.81;;;17.30;39.41
26487;BME280;14425;56.136;40.360;2022-09-03T09:47:10;100166.28;;;17.53;40.13
26487;BME280;14425;56.136;40.360;2022-09-03T09:49:37;100163.38;;;17.34;40.13
26487;BME280;14425;56.136;40.360;2022-09-03T09:52:12;100172.41;;;16.57;41.37
26487;BME280;14425;56.136;40.360;2022-09-03T09:54:38;100163.56;;;17.45;40.09
26487;BME280;14425;56.136;40.360;2022-09-03T09:57:05;100153.59;;;18.42;38.06
26487;BME280;14425;56.136;40.360;2022-09-03T09:59:31;100164.19;;;18.56;37.13
26487;BME280;14425;56.136;40.360;2022-09-03T10:02:48;100155.22;;;18.32;39.00
26487;BME280;14425;56.136;40.360;2022-09-03T10:04:51;100168.44;;;17.24;39.49
26487;BME280;14425;56.136;40.360;2022-09-03T10:09:44;100169.88;;;15.42;42.14
26487;BME280;14425;56.136;40.360;2022-09-03T10:14:46;100185.97;;;16.00;41.31
26487;BME280;14425;56.136;40.360;2022-09-03T10:19:55;100169.06;;;16.65;39.71
26487;BME280;14425;56.136;40.360;2022-09-03T10:22:41;100166.06;;;16.02;42.83
26487;BME280;14425;56.136;40.360;2022-09-03T10:25:11;100165.78;;;15.51;42.73
26487;BME280;14425;56.136;40.360;2022-09-03T10:27:38;100165.09;;;15.24;44.35
26487;BME280;14425;56.136;40.360;2022-09-03T10:30:04;100175.84;;;14.69;45.64
26487;BME280;14425;56.136;40.360;2022-09-03T10:40:27;100187.44;;;15.17;46.85
26487;BME280;14425;56.136;40.360;2022-09-03T10:45:39;100199.47;;;14.80;45.70
26487;BME280;14425;56.136;40.360;2022-09-03T10:48:16;100199.84;;;14.94;45.88
26487;BME280;14425;56.136;40.360;2022-09-03T10:50:47;100199.75;;;14.59;46.32
26487;BME280;14425;56.136;40.360;2022-09-03T10:58:47;100185.63;;;15.84;43.69
26487;BME280;14425;56.136;40.360;2022-09-03T11:06:49;100177.94;;;15.52;47.43
26487;BME280;14425;56.136;40.360;2022-09-03T11:09:28;100190.16;;;15.93;45.04
26487;BME280;14425;56.136;40.360;2022-09-03T11:11:56;100183.38;;;16.41;45.71
26487;BME280;14425;56.136;40.360;2022-09-03T11:14:34;100173.97;;;17.44;41.61
26487;BME280;14425;56.136;40.360;2022-09-03T11:17:08;100166.63;;;17.78;42.25
26487;BME280;14425;56.136;40.360;2022-09-03T11:19:38;100172.13;;;17.93;40.11
26487;BME280;14425;56.136;40.360;2022-09-03T11:22:05;100175.34;;;16.29;42.13
26487;BME280;14425;56.136;40.360;2022-09-03T11:24:32;100171.56;;;17.04;43.13
26487;BME280;14425;56.136;40.360;2022-09-03T11:29:46;100165.31;;;18.06;41.81
26487;BME280;14425;56.136;40.360;2022-09-03T11:32:20;100165.81;;;17.80;40.50
26487;BME280;14425;56.136;40.360;2022-09-03T11:34:49;100164.53;;;16.98;42.19
26487;BME280;14425;56.136;40.360;2022-09-03T11:42:37;100152.72;;;17.77;40.05
26487;BME280;14425;56.136;40.360;2022-09-03T11:47:46;100153.88;;;15.61;42.54
26487;BME280;14425;56.136;40.360;2022-09-03T11:52:45;100143.88;;;18.28;37.93
26487;BME280;14425;56.136;40.360;2022-09-03T11:55:11;100152.75;;;17.79;39.21
26487;BME280;14425;56.136;40.360;2022-09-03T11:57:41;100142.38;;;18.51;37.46
26487;BME280;14425;56.136;40.360;2022-09-03T12:00:13;100150.44;;;17.99;38.26
26487;BME280;14425;56.136;40.360;2022-09-03T12:03:01;100141.34;;;17.70;39.01
26487;BME280;14425;56.136;40.360;2022-09-03T12:10:40;100130.25;;;18.59;37.71
26487;BME280;14425;56.136;40.360;2022-09-03T12:16:05;100125.50;;;20.57;34.64
26487;BME280;14425;56.136;40.360;2022-09-03T12:18:33;100118.72;;;19.29;35.47
26487;BME280;14425;56.136;40.360;2022-09-03T12:21:01;100117.34;;;19.82;34.36
26487;BME280;14425;56.136;40.360;2022-09-03T12:25:55;100121.72;;;18.74;34.27
26487;BME280;14425;56.136;40.360;2022-09-03T12:28:29;100114.66;;;18.65;35.24
26487;BME280;14425;56.136;40.360;2022-09-03T12:31:04;100116.34;;;17.86;36.09
26487;BME280;14425;56.136;40.360;2022-09-03T12:33:30;100116.44;;;17.34;37.18
26487;BME280;14425;56.136;40.360;2022-09-03T12:35:57;100098.22;;;17.96;37.73
26487;BME280;14425;56.136;40.360;2022-09-03T12:38:23;100123.13;;;17.73;36.84
26487;BME280;14425;56.136;40.360;2022-09-03T12:40:50;100114.81;;;18.02;36.64
26487;BME280;14425;56.136;40.360;2022-09-03T12:43:16;100121.63;;;17.30;37.76
26487;BME280;14425;56.136;40.360;2022-09-03T12:45:43;100122.00;;;17.58;37.13
26487;BME280;14425;56.136;40.360;2022-09-03T12:48:16;100134.75;;;16.40;38.54
26487;BME280;14425;56.136;40.360;2022-09-03T12:50:42;100125.38;;;16.04;39.98
26487;BME280;14425;56.136;40.360;2022-09-03T12:53:30;100127.38;;;16.63;38.36
26487;BME280;14425;56.136;40.360;2022-09-03T12:55:55;100123.38;;;15.91;39.53
26487;BME280;14425;56.136;40.360;2022-09-03T13:03:17;100117.16;;;15.09;42.01
26487;BME280;14425;56.136;40.360;2022-09-03T13:06:28;100125.31;;;15.25;42.38
26487;BME280;14425;56.136;40.360;2022-09-03T13:08:43;100125.97;;;15.16;42.25
26487;BME280;14425;56.136;40.360;2022-09-03T13:11:10;100124.59;;;15.70;42.34
26487;BME280;14425;56.136;40.360;2022-09-03T13:13:47;100117.53;;;16.02;41.59
26487;BME280;14425;56.136;40.360;2022-09-03T13:24:01;100115.00;;;15.66;42.89
26487;BME280;14425;56.136;40.360;2022-09-03T13:31:42;100112.97;;;15.16;43.51
26487;BME280;14425;56.136;40.360;2022-09-03T13:34:26;100119.78;;;15.85;42.39
26487;BME280;14425;56.136;40.360;2022-09-03T13:39:26;100117.91;;;15.42;43.37
26487;BME280;14425;56.136;40.360;2022-09-03T13:41:57;100108.44;;;14.42;45.27
26487;BME280;14425;56.136;40.360;2022-09-03T13:46:58;100115.88;;;13.99;46.63
26487;BME280;14425;56.136;40.360;2022-09-03T13:52:36;100107.84;;;15.19;43.97
26487;BME280;14425;56.136;40.360;2022-09-03T14:03:07;100097.28;;;15.87;42.36
26487;BME280;14425;56.136;40.360;2022-09-03T14:05:43;100095.00;;;16.03;41.98
26487;BME280;14425;56.136;40.360;2022-09-03T14:08:31;100090.41;;;15.51;42.70
26487;BME280;14425;56.136;40.360;2022-09-03T14:11:01;100087.13;;;16.00;42.43
26487;BME280;14425;56.136;40.360;2022-09-03T14:18:36;100085.59;;;15.70;42.34
26487;BME280;14425;56.136;40.360;2022-09-03T14:21:20;100095.97;;;16.08;41.45
26487;BME280;14425;56.136;40.360;2022-09-03T14:26:34;100087.78;;;15.13;42.16
26487;BME280;14425;56.136;40.360;2022-09-03T14:29:06;100078.41;;;15.98;41.18
26487;BME280;14425;56.136;40.360;2022-09-03T14:37:05;100083.97;;;15.34;41.34
26487;BME280;14425;56.136;40.360;2022-09-03T14:39:58;100087.22;;;14.57;42.10
26487;BME280;14425;56.136;40.360;2022-09-03T15:01:04;100068.56;;;15.43;41.09
26487;BME280;14425;56.136;40.360;2022-09-03T15:11:48;100071.81;;;14.62;41.75
26487;BME280;14425;56.136;40.360;2022-09-03T15:14:25;100072.88;;;15.43;39.43
26487;BME280;14425;56.136;40.360;2022-09-03T15:16:55;100072.91;;;14.71;40.48
26487;BME280;14425;56.136;40.360;2022-09-03T15:30:41;100078.44;;;13.59;44.15
26487;BME280;14425;56.136;40.360;2022-09-03T15:33:12;100068.91;;;13.58;44.65
26487;BME280;14425;56.136;40.360;2022-09-03T15:35:44;100077.66;;;13.33;45.41
26487;BME280;14425;56.136;40.360;2022-09-03T15:41:05;100070.22;;;12.91;46.34
26487;BME280;14425;56.136;40.360;2022-09-03T15:43:33;100067.03;;;12.72;46.96
26487;BME280;14425;56.136;40.360;2022-09-03T15:46:00;100059.78;;;12.62;47.52
26487;BME280;14425;56.136;40.360;2022-09-03T15:53:33;100061.44;;;12.34;48.61
26487;BME280;14425;56.136;40.360;2022-09-03T15:56:11;100072.59;;;12.33;48.84
26487;BME280;14425;56.136;40.360;2022-09-03T15:58:56;100071.06;;;12.14;49.20
26487;BME280;14425;56.136;40.360;2022-09-03T16:01:31;100074.91;;;12.01;49.99
26487;BME280;14425;56.136;40.360;2022-09-03T16:04:04;100076.19;;;11.90;50.44
26487;BME280;14425;56.136;40.360;2022-09-03T16:06:42;100075.47;;;11.93;50.03
26487;BME280;14425;56.136;40.360;2022-09-03T16:09:23;100079.75;;;11.92;50.34
26487;BME280;14425;56.136;40.360;2022-09-03T16:11:53;100087.19;;;11.84;50.60
26487;BME280;14425;56.136;40.360;2022-09-03T16:14:22;100080.97;;;11.79;50.52
26487;BME280;14425;56.136;40.360;2022-09-03T16:16:55;100082.31;;;11.70;50.58
26487;BME280;14425;56.136;40.360;2022-09-03T16:22:29;100085.66;;;12.12;49.18
26487;BME280;14425;56.136;40.360;2022-09-03T16:25:00;100091.31;;;11.79;49.99
26487;BME280;14425;56.136;40.360;2022-09-03T16:27:37;100090.00;;;11.68;50.45
26487;BME280;14425;56.136;40.360;2022-09-03T16:30:09;100089.97;;;11.44;51.08
26487;BME280;14425;56.136;40.360;2022-09-03T16:37:43;100097.53;;;11.39;51.09
26487;BME280;14425;56.136;40.360;2022-09-03T16:40:26;100102.19;;;11.27;51.74
26487;BME280;14425;56.136;40.360;2022-09-03T16:43:02;100098.28;;;11.37;51.43
26487;BME280;14425;56.136;40.360;2022-09-03T16:48:15;100099.25;;;11.18;52.18
26487;BME280;14425;56.136;40.360;2022-09-03T16:53:14;100101.78;;;10.95;53.05
26487;BME280;14425;56.136;40.360;2022-09-03T16:58:20;100109.53;;;10.74;53.76
26487;BME280;14425;56.136;40.360;2022-09-03T17:06:04;100112.78;;;10.70;54.00
26487;BME280;14425;56.136;40.360;2022-09-03T17:08:53;100113.41;;;10.64;54.26